sensor_id;sensor_type;location;lat;lon;timestamp;P1;durP1;ratioP1;P2;durP2;ratioP2
72132;SDS011;60008;50.826;6.896;2022-10-24T00:01:44;8.85;;;1.83;;
72132;SDS011;60008;50.826;6.896;2022-10-24T00:04:29;8.82;;;1.58;;
72132;SDS011;60008;50.826;6.896;2022-10-24T00:07:14;7.57;;;1.57;;
72132;SDS011;60008;50.826;6.896;2022-10-24T00:09:59;5.55;;;2.05;;
72132;SDS011;60008;50.826;6.896;2022-10-24T00:12:44;7.15;;;1.95;;
72132;SDS011;60008;50.826;6.896;2022-10-24T00:15:30;6.97;;;1.90;;
72132;SDS011;60008;50.826;6.896;2022-10-24T00:18:15;8.18;;;2.10;;
72132;SDS011;60008;50.826;6.896;2022-10-24T00:21:01;8.53;;;1.73;;
72132;SDS011;60008;50.826;6.896;2022-10-24T00:23:47;8.82;;;1.45;;
72132;SDS011;60008;50.826;6.896;2022-10-24T00:26:32;5.82;;;1.80;;
72132;SDS011;60008;50.826;6.896;2022-10-24T00:29:18;7.60;;;2.00;;
72132;SDS011;60008;50.826;6.896;2022-10-24T00:32:03;8.65;;;2.10;;
72132;SDS011;60008;50.826;6.896;2022-10-24T00:34:48;7.03;;;2.30;;
72132;SDS011;60008;50.826;6.896;2022-10-24T00:37:33;10.68;;;1.70;;
72132;SDS011;60008;50.826;6.896;2022-10-24T00:40:19;7.90;;;1.75;;
72132;SDS011;60008;50.826;6.896;2022-10-24T00:43:09;7.82;;;1.75;;
72132;SDS011;60008;50.826;6.896;2022-10-24T00:45:58;5.38;;;1.70;;
72132;SDS011;60008;50.826;6.896;2022-10-24T00:48:49;10.90;;;2.30;;
72132;SDS011;60008;50.826;6.896;2022-10-24T00:51:37;6.43;;;1.65;;
72132;SDS011;60008;50.826;6.896;2022-10-24T00:54:22;9.82;;;2.38;;
72132;SDS011;60008;50.826;6.896;2022-10-24T01:00:10;11.93;;;2.10;;
72132;SDS011;60008;50.826;6.896;2022-10-24T01:03:01;12.27;;;1.97;;
72132;SDS011;60008;50.826;6.896;2022-10-24T01:08:52;10.18;;;2.03;;
72132;SDS011;60008;50.826;6.896;2022-10-24T01:15:02;7.50;;;1.80;;
72132;SDS011;60008;50.826;6.896;2022-10-24T01:18:07;5.93;;;1.93;;
72132;SDS011;60008;50.826;6.896;2022-10-24T01:29:49;9.77;;;2.13;;
72132;SDS011;60008;50.826;6.896;2022-10-24T01:33:00;5.20;;;2.00;;
72132;SDS011;60008;50.826;6.896;2022-10-24T01:35:51;9.95;;;2.20;;
72132;SDS011;60008;50.826;6.896;2022-10-24T01:38:41;6.43;;;2.00;;
72132;SDS011;60008;50.826;6.896;2022-10-24T01:41:31;8.63;;;2.10;;
72132;SDS011;60008;50.826;6.896;2022-10-24T01:44:18;7.78;;;2.00;;
72132;SDS011;60008;50.826;6.896;2022-10-24T01:47:13;9.77;;;1.60;;
72132;SDS011;60008;50.826;6.896;2022-10-24T01:50:04;11.10;;;2.33;;
72132;SDS011;60008;50.826;6.896;2022-10-24T01:52:54;8.35;;;2.13;;
72132;SDS011;60008;50.826;6.896;2022-10-24T01:55:41;8.07;;;2.08;;
72132;SDS011;60008;50.826;6.896;2022-10-24T01:58:28;9.13;;;2.38;;
72132;SDS011;60008;50.826;6.896;2022-10-24T02:01:15;8.37;;;2.40;;
72132;SDS011;60008;50.826;6.896;2022-10-24T02:04:06;10.15;;;2.33;;
72132;SDS011;60008;50.826;6.896;2022-10-24T02:06:54;9.07;;;2.53;;
72132;SDS011;60008;50.826;6.896;2022-10-24T02:09:41;9.23;;;2.05;;
72132;SDS011;60008;50.826;6.896;2022-10-24T02:12:29;7.18;;;2.20;;
72132;SDS011;60008;50.826;6.896;2022-10-24T02:15:25;5.73;;;2.00;;
72132;SDS011;60008;50.826;6.896;2022-10-24T02:18:13;13.30;;;2.75;;
72132;SDS011;60008;50.826;6.896;2022-10-24T02:21:05;11.52;;;2.45;;
72132;SDS011;60008;50.826;6.896;2022-10-24T02:24:01;10.60;;;2.45;;
72132;SDS011;60008;50.826;6.896;2022-10-24T02:30:18;9.57;;;2.20;;
72132;SDS011;60008;50.826;6.896;2022-10-24T02:33:05;6.25;;;2.15;;
72132;SDS011;60008;50.826;6.896;2022-10-24T02:35:53;5.15;;;2.10;;
72132;SDS011;60008;50.826;6.896;2022-10-24T02:38:40;7.53;;;2.10;;
72132;SDS011;60008;50.826;6.896;2022-10-24T02:41:29;14.98;;;2.20;;
72132;SDS011;60008;50.826;6.896;2022-10-24T02:44:17;12.67;;;2.00;;
72132;SDS011;60008;50.826;6.896;2022-10-24T02:47:03;7.35;;;1.92;;
72132;SDS011;60008;50.826;6.896;2022-10-24T02:49:50;8.55;;;2.20;;
72132;SDS011;60008;50.826;6.896;2022-10-24T02:52:35;5.53;;;2.10;;
72132;SDS011;60008;50.826;6.896;2022-10-24T02:55:22;10.45;;;2.38;;
72132;SDS011;60008;50.826;6.896;2022-10-24T02:58:07;12.60;;;2.37;;
72132;SDS011;60008;50.826;6.896;2022-10-24T03:00:52;9.00;;;2.10;;
72132;SDS011;60008;50.826;6.896;2022-10-24T03:03:37;8.27;;;2.08;;
72132;SDS011;60008;50.826;6.896;2022-10-24T03:06:23;10.45;;;2.28;;
72132;SDS011;60008;50.826;6.896;2022-10-24T03:09:08;9.50;;;2.75;;
72132;SDS011;60008;50.826;6.896;2022-10-24T03:11:53;9.73;;;2.37;;
72132;SDS011;60008;50.826;6.896;2022-10-24T03:14:38;9.88;;;2.10;;
72132;SDS011;60008;50.826;6.896;2022-10-24T03:17:23;8.32;;;2.00;;
72132;SDS011;60008;50.826;6.896;2022-10-24T03:20:09;11.10;;;2.53;;
72132;SDS011;60008;50.826;6.896;2022-10-24T03:22:54;12.38;;;2.20;;
72132;SDS011;60008;50.826;6.896;2022-10-24T03:25:39;11.17;;;2.23;;
72132;SDS011;60008;50.826;6.896;2022-10-24T03:28:24;13.73;;;2.38;;
72132;SDS011;60008;50.826;6.896;2022-10-24T03:31:09;7.93;;;2.05;;
72132;SDS011;60008;50.826;6.896;2022-10-24T03:33:54;8.95;;;2.28;;
72132;SDS011;60008;50.826;6.896;2022-10-24T03:36:39;12.43;;;2.20;;
72132;SDS011;60008;50.826;6.896;2022-10-24T03:39:25;6.30;;;1.77;;
72132;SDS011;60008;50.826;6.896;2022-10-24T03:42:10;8.73;;;1.92;;
72132;SDS011;60008;50.826;6.896;2022-10-24T03:44:55;7.35;;;2.00;;
72132;SDS011;60008;50.826;6.896;2022-10-24T03:47:40;12.57;;;1.85;;
72132;SDS011;60008;50.826;6.896;2022-10-24T03:50:25;9.68;;;2.08;;
72132;SDS011;60008;50.826;6.896;2022-10-24T03:53:10;10.13;;;1.97;;
72132;SDS011;60008;50.826;6.896;2022-10-24T03:55:55;10.48;;;1.63;;
72132;SDS011;60008;50.826;6.896;2022-10-24T03:58:41;7.28;;;1.70;;
72132;SDS011;60008;50.826;6.896;2022-10-24T04:01:26;11.60;;;2.08;;
72132;SDS011;60008;50.826;6.896;2022-10-24T04:04:12;14.38;;;2.13;;
72132;SDS011;60008;50.826;6.896;2022-10-24T04:06:57;11.37;;;1.83;;
72132;SDS011;60008;50.826;6.896;2022-10-24T04:09:44;11.07;;;1.80;;
72132;SDS011;60008;50.826;6.896;2022-10-24T04:12:29;10.77;;;1.73;;
72132;SDS011;60008;50.826;6.896;2022-10-24T04:15:14;13.23;;;2.30;;
72132;SDS011;60008;50.826;6.896;2022-10-24T04:17:59;7.30;;;2.13;;
72132;SDS011;60008;50.826;6.896;2022-10-24T04:20:44;4.43;;;1.77;;
72132;SDS011;60008;50.826;6.896;2022-10-24T04:23:29;16.48;;;2.00;;
72132;SDS011;60008;50.826;6.896;2022-10-24T04:26:19;6.93;;;2.13;;
72132;SDS011;60008;50.826;6.896;2022-10-24T04:29:04;8.70;;;1.98;;
72132;SDS011;60008;50.826;6.896;2022-10-24T04:31:49;9.40;;;2.08;;
72132;SDS011;60008;50.826;6.896;2022-10-24T04:34:34;7.70;;;1.83;;
72132;SDS011;60008;50.826;6.896;2022-10-24T04:37:19;9.20;;;1.70;;
72132;SDS011;60008;50.826;6.896;2022-10-24T04:40:05;10.85;;;1.80;;
72132;SDS011;60008;50.826;6.896;2022-10-24T04:42:50;5.95;;;2.05;;
72132;SDS011;60008;50.826;6.896;2022-10-24T04:45:35;13.63;;;1.80;;
72132;SDS011;60008;50.826;6.896;2022-10-24T04:48:21;9.73;;;1.60;;
72132;SDS011;60008;50.826;6.896;2022-10-24T04:51:06;6.13;;;1.50;;
72132;SDS011;60008;50.826;6.896;2022-10-24T04:53:51;6.72;;;1.80;;
72132;SDS011;60008;50.826;6.896;2022-10-24T04:56:36;7.88;;;1.80;;
72132;SDS011;60008;50.826;6.896;2022-10-24T04:59:21;6.72;;;1.58;;
72132;SDS011;60008;50.826;6.896;2022-10-24T05:02:06;6.03;;;1.50;;
72132;SDS011;60008;50.826;6.896;2022-10-24T05:04:51;13.10;;;2.05;;
72132;SDS011;60008;50.826;6.896;2022-10-24T05:07:36;8.27;;;1.80;;
72132;SDS011;60008;50.826;6.896;2022-10-24T05:10:22;4.30;;;1.33;;
72132;SDS011;60008;50.826;6.896;2022-10-24T05:13:07;12.27;;;1.55;;
72132;SDS011;60008;50.826;6.896;2022-10-24T05:15:53;10.07;;;1.50;;
72132;SDS011;60008;50.826;6.896;2022-10-24T05:18:38;6.78;;;1.60;;
72132;SDS011;60008;50.826;6.896;2022-10-24T05:21:23;8.25;;;2.05;;
72132;SDS011;60008;50.826;6.896;2022-10-24T05:24:08;11.60;;;1.75;;
72132;SDS011;60008;50.826;6.896;2022-10-24T05:26:53;6.20;;;1.50;;
72132;SDS011;60008;50.826;6.896;2022-10-24T05:29:38;6.97;;;1.40;;
72132;SDS011;60008;50.826;6.896;2022-10-24T05:32:24;9.02;;;1.38;;
72132;SDS011;60008;50.826;6.896;2022-10-24T05:35:09;11.45;;;1.73;;
72132;SDS011;60008;50.826;6.896;2022-10-24T05:37:54;5.35;;;1.27;;
72132;SDS011;60008;50.826;6.896;2022-10-24T05:40:39;11.32;;;1.30;;
72132;SDS011;60008;50.826;6.896;2022-10-24T05:43:25;6.03;;;1.40;;
72132;SDS011;60008;50.826;6.896;2022-10-24T05:46:10;4.90;;;1.75;;
72132;SDS011;60008;50.826;6.896;2022-10-24T05:48:55;6.50;;;1.75;;
72132;SDS011;60008;50.826;6.896;2022-10-24T05:51:40;6.60;;;1.48;;
72132;SDS011;60008;50.826;6.896;2022-10-24T05:54:25;4.90;;;1.77;;
72132;SDS011;60008;50.826;6.896;2022-10-24T05:57:26;5.13;;;1.40;;
72132;SDS011;60008;50.826;6.896;2022-10-24T06:00:13;7.03;;;1.70;;
72132;SDS011;60008;50.826;6.896;2022-10-24T06:02:59;3.75;;;1.30;;
72132;SDS011;60008;50.826;6.896;2022-10-24T06:05:45;9.75;;;1.52;;
72132;SDS011;60008;50.826;6.896;2022-10-24T06:08:30;5.90;;;1.15;;
72132;SDS011;60008;50.826;6.896;2022-10-24T06:11:15;10.23;;;1.20;;
72132;SDS011;60008;50.826;6.896;2022-10-24T06:14:00;7.65;;;1.23;;
72132;SDS011;60008;50.826;6.896;2022-10-24T06:16:45;2.58;;;0.90;;
72132;SDS011;60008;50.826;6.896;2022-10-24T06:19:31;3.53;;;1.33;;
72132;SDS011;60008;50.826;6.896;2022-10-24T06:22:16;4.47;;;0.98;;
72132;SDS011;60008;50.826;6.896;2022-10-24T06:25:02;6.90;;;0.80;;
72132;SDS011;60008;50.826;6.896;2022-10-24T06:27:47;3.58;;;0.93;;
72132;SDS011;60008;50.826;6.896;2022-10-24T06:30:35;4.25;;;1.00;;
72132;SDS011;60008;50.826;6.896;2022-10-24T06:33:20;3.83;;;0.88;;
72132;SDS011;60008;50.826;6.896;2022-10-24T06:36:06;2.55;;;0.77;;
72132;SDS011;60008;50.826;6.896;2022-10-24T06:38:53;2.93;;;0.70;;
72132;SDS011;60008;50.826;6.896;2022-10-24T06:41:38;3.83;;;0.80;;
72132;SDS011;60008;50.826;6.896;2022-10-24T06:44:23;3.30;;;0.65;;
72132;SDS011;60008;50.826;6.896;2022-10-24T06:47:08;6.03;;;1.08;;
72132;SDS011;60008;50.826;6.896;2022-10-24T06:49:53;6.75;;;1.50;;
72132;SDS011;60008;50.826;6.896;2022-10-24T06:52:38;12.23;;;1.00;;
72132;SDS011;60008;50.826;6.896;2022-10-24T06:55:23;5.25;;;0.88;;
72132;SDS011;60008;50.826;6.896;2022-10-24T06:58:08;5.32;;;1.15;;
72132;SDS011;60008;50.826;6.896;2022-10-24T07:00:53;6.60;;;1.05;;
72132;SDS011;60008;50.826;6.896;2022-10-24T07:03:38;6.88;;;0.93;;
72132;SDS011;60008;50.826;6.896;2022-10-24T07:06:25;8.03;;;0.60;;
72132;SDS011;60008;50.826;6.896;2022-10-24T07:09:11;4.13;;;0.90;;
72132;SDS011;60008;50.826;6.896;2022-10-24T07:11:59;5.45;;;0.80;;
72132;SDS011;60008;50.826;6.896;2022-10-24T07:14:44;6.40;;;0.85;;
72132;SDS011;60008;50.826;6.896;2022-10-24T07:17:29;4.50;;;0.90;;
72132;SDS011;60008;50.826;6.896;2022-10-24T07:20:15;2.00;;;0.70;;
72132;SDS011;60008;50.826;6.896;2022-10-24T07:23:00;3.65;;;0.75;;
72132;SDS011;60008;50.826;6.896;2022-10-24T07:25:45;3.85;;;0.80;;
72132;SDS011;60008;50.826;6.896;2022-10-24T07:28:30;3.80;;;1.10;;
72132;SDS011;60008;50.826;6.896;2022-10-24T07:31:16;4.78;;;0.70;;
72132;SDS011;60008;50.826;6.896;2022-10-24T07:34:03;2.17;;;0.63;;
72132;SDS011;60008;50.826;6.896;2022-10-24T07:36:49;4.45;;;0.70;;
72132;SDS011;60008;50.826;6.896;2022-10-24T07:39:35;0.90;;;0.40;;
72132;SDS011;60008;50.826;6.896;2022-10-24T07:42:21;2.78;;;0.50;;
72132;SDS011;60008;50.826;6.896;2022-10-24T07:45:06;3.22;;;0.70;;
72132;SDS011;60008;50.826;6.896;2022-10-24T07:47:52;3.50;;;0.60;;
72132;SDS011;60008;50.826;6.896;2022-10-24T07:50:41;3.03;;;0.80;;
72132;SDS011;60008;50.826;6.896;2022-10-24T07:53:27;4.13;;;0.90;;
72132;SDS011;60008;50.826;6.896;2022-10-24T07:56:13;5.35;;;0.77;;
72132;SDS011;60008;50.826;6.896;2022-10-24T07:59:00;2.88;;;0.60;;
72132;SDS011;60008;50.826;6.896;2022-10-24T08:01:53;4.90;;;0.50;;
72132;SDS011;60008;50.826;6.896;2022-10-24T08:04:38;1.25;;;0.22;;
72132;SDS011;60008;50.826;6.896;2022-10-24T08:07:24;4.60;;;0.70;;
72132;SDS011;60008;50.826;6.896;2022-10-24T08:10:10;4.57;;;0.70;;
72132;SDS011;60008;50.826;6.896;2022-10-24T08:12:56;4.13;;;0.80;;
72132;SDS011;60008;50.826;6.896;2022-10-24T08:15:42;4.27;;;0.57;;
72132;SDS011;60008;50.826;6.896;2022-10-24T08:18:27;3.30;;;0.70;;
72132;SDS011;60008;50.826;6.896;2022-10-24T08:21:15;5.38;;;0.80;;
72132;SDS011;60008;50.826;6.896;2022-10-24T08:24:01;5.47;;;0.50;;
72132;SDS011;60008;50.826;6.896;2022-10-24T08:26:47;4.45;;;0.75;;
72132;SDS011;60008;50.826;6.896;2022-10-24T08:29:34;4.10;;;0.50;;
72132;SDS011;60008;50.826;6.896;2022-10-24T08:32:19;3.13;;;1.13;;
72132;SDS011;60008;50.826;6.896;2022-10-24T08:35:05;10.95;;;0.82;;
72132;SDS011;60008;50.826;6.896;2022-10-24T08:37:51;6.38;;;0.77;;
72132;SDS011;60008;50.826;6.896;2022-10-24T08:40:36;1.83;;;0.45;;
72132;SDS011;60008;50.826;6.896;2022-10-24T08:43:21;4.67;;;0.60;;
72132;SDS011;60008;50.826;6.896;2022-10-24T08:52:46;2.50;;;0.50;;
72132;SDS011;60008;50.826;6.896;2022-10-24T08:55:42;1.92;;;0.50;;
72132;SDS011;60008;50.826;6.896;2022-10-24T08:58:35;3.03;;;0.70;;
72132;SDS011;60008;50.826;6.896;2022-10-24T09:01:32;3.83;;;0.90;;
72132;SDS011;60008;50.826;6.896;2022-10-24T09:04:26;5.70;;;0.80;;
72132;SDS011;60008;50.826;6.896;2022-10-24T09:07:19;6.63;;;0.75;;
72132;SDS011;60008;50.826;6.896;2022-10-24T09:10:12;3.75;;;0.70;;
72132;SDS011;60008;50.826;6.896;2022-10-24T09:13:06;2.27;;;0.57;;
72132;SDS011;60008;50.826;6.896;2022-10-24T09:15:56;4.95;;;0.70;;
72132;SDS011;60008;50.826;6.896;2022-10-24T09:18:42;6.47;;;0.82;;
72132;SDS011;60008;50.826;6.896;2022-10-24T09:21:30;6.72;;;0.80;;
72132;SDS011;60008;50.826;6.896;2022-10-24T09:27:34;1.80;;;0.40;;
72132;SDS011;60008;50.826;6.896;2022-10-24T09:30:23;4.82;;;0.70;;
72132;SDS011;60008;50.826;6.896;2022-10-24T09:36:17;7.85;;;0.57;;
72132;SDS011;60008;50.826;6.896;2022-10-24T09:39:21;4.68;;;0.50;;
72132;SDS011;60008;50.826;6.896;2022-10-24T09:42:18;9.23;;;1.07;;
72132;SDS011;60008;50.826;6.896;2022-10-24T09:48:24;5.07;;;1.00;;
72132;SDS011;60008;50.826;6.896;2022-10-24T09:51:58;1.30;;;0.50;;
72132;SDS011;60008;50.826;6.896;2022-10-24T09:54:26;5.18;;;0.85;;
72132;SDS011;60008;50.826;6.896;2022-10-24T09:57:15;4.00;;;0.70;;
72132;SDS011;60008;50.826;6.896;2022-10-24T10:00:01;4.60;;;0.70;;
72132;SDS011;60008;50.826;6.896;2022-10-24T10:05:45;4.00;;;0.82;;
72132;SDS011;60008;50.826;6.896;2022-10-24T10:08:33;5.50;;;1.20;;
72132;SDS011;60008;50.826;6.896;2022-10-24T10:11:26;2.83;;;0.87;;
72132;SDS011;60008;50.826;6.896;2022-10-24T10:14:24;3.35;;;0.77;;
72132;SDS011;60008;50.826;6.896;2022-10-24T10:17:11;4.45;;;0.93;;
72132;SDS011;60008;50.826;6.896;2022-10-24T10:20:05;4.28;;;0.70;;
72132;SDS011;60008;50.826;6.896;2022-10-24T10:22:50;4.40;;;0.80;;
72132;SDS011;60008;50.826;6.896;2022-10-24T10:25:35;5.67;;;0.70;;
72132;SDS011;60008;50.826;6.896;2022-10-24T10:28:21;3.50;;;0.50;;
72132;SDS011;60008;50.826;6.896;2022-10-24T10:31:08;3.63;;;0.82;;
72132;SDS011;60008;50.826;6.896;2022-10-24T10:37:07;4.28;;;0.75;;
72132;SDS011;60008;50.826;6.896;2022-10-24T10:40:10;3.43;;;0.60;;
72132;SDS011;60008;50.826;6.896;2022-10-24T10:43:12;5.88;;;0.70;;
72132;SDS011;60008;50.826;6.896;2022-10-24T10:46:19;3.42;;;0.80;;
72132;SDS011;60008;50.826;6.896;2022-10-24T10:52:24;6.95;;;1.05;;
72132;SDS011;60008;50.826;6.896;2022-10-24T10:55:27;3.83;;;0.60;;
72132;SDS011;60008;50.826;6.896;2022-10-24T10:58:38;4.90;;;0.60;;
72132;SDS011;60008;50.826;6.896;2022-10-24T11:01:42;3.10;;;0.73;;
72132;SDS011;60008;50.826;6.896;2022-10-24T11:04:36;7.05;;;1.10;;
72132;SDS011;60008;50.826;6.896;2022-10-24T11:07:34;5.55;;;0.70;;
72132;SDS011;60008;50.826;6.896;2022-10-24T11:10:31;7.23;;;0.70;;
72132;SDS011;60008;50.826;6.896;2022-10-24T11:13:22;5.32;;;0.60;;
72132;SDS011;60008;50.826;6.896;2022-10-24T11:16:20;4.10;;;0.73;;
72132;SDS011;60008;50.826;6.896;2022-10-24T11:19:10;3.28;;;0.57;;
72132;SDS011;60008;50.826;6.896;2022-10-24T11:22:07;5.30;;;0.52;;
72132;SDS011;60008;50.826;6.896;2022-10-24T11:28:15;4.05;;;0.80;;
72132;SDS011;60008;50.826;6.896;2022-10-24T11:31:12;4.20;;;0.60;;
72132;SDS011;60008;50.826;6.896;2022-10-24T11:34:14;4.82;;;0.70;;
72132;SDS011;60008;50.826;6.896;2022-10-24T11:37:05;4.05;;;0.73;;
72132;SDS011;60008;50.826;6.896;2022-10-24T11:39:57;3.00;;;0.60;;
72132;SDS011;60008;50.826;6.896;2022-10-24T11:46:00;3.30;;;0.63;;
72132;SDS011;60008;50.826;6.896;2022-10-24T11:49:09;6.70;;;0.75;;
72132;SDS011;60008;50.826;6.896;2022-10-24T11:52:04;5.85;;;1.02;;
72132;SDS011;60008;50.826;6.896;2022-10-24T11:58:21;3.97;;;0.80;;
72132;SDS011;60008;50.826;6.896;2022-10-24T12:10:48;3.70;;;0.50;;
72132;SDS011;60008;50.826;6.896;2022-10-24T12:20:14;4.43;;;0.70;;
72132;SDS011;60008;50.826;6.896;2022-10-24T12:23:03;3.70;;;0.82;;
72132;SDS011;60008;50.826;6.896;2022-10-24T12:26:35;4.67;;;0.63;;
72132;SDS011;60008;50.826;6.896;2022-10-24T12:29:01;4.95;;;0.70;;
72132;SDS011;60008;50.826;6.896;2022-10-24T12:31:48;4.97;;;0.80;;
72132;SDS011;60008;50.826;6.896;2022-10-24T12:34:40;3.72;;;0.63;;
72132;SDS011;60008;50.826;6.896;2022-10-24T12:37:33;5.75;;;1.05;;
72132;SDS011;60008;50.826;6.896;2022-10-24T12:40:45;5.10;;;0.77;;
72132;SDS011;60008;50.826;6.896;2022-10-24T12:43:39;3.35;;;0.63;;
72132;SDS011;60008;50.826;6.896;2022-10-24T12:49:29;5.28;;;0.50;;
72132;SDS011;60008;50.826;6.896;2022-10-24T12:58:36;4.68;;;0.80;;
72132;SDS011;60008;50.826;6.896;2022-10-24T13:01:23;9.88;;;0.77;;
72132;SDS011;60008;50.826;6.896;2022-10-24T13:04:26;4.40;;;0.70;;
72132;SDS011;60008;50.826;6.896;2022-10-24T13:10:48;2.20;;;0.60;;
72132;SDS011;60008;50.826;6.896;2022-10-24T13:13:49;4.40;;;0.50;;
72132;SDS011;60008;50.826;6.896;2022-10-24T13:16:41;3.60;;;0.60;;
72132;SDS011;60008;50.826;6.896;2022-10-24T13:19:42;2.85;;;0.40;;
72132;SDS011;60008;50.826;6.896;2022-10-24T13:22:28;3.33;;;0.50;;
72132;SDS011;60008;50.826;6.896;2022-10-24T13:25:26;1.40;;;0.60;;
72132;SDS011;60008;50.826;6.896;2022-10-24T13:34:15;2.97;;;0.50;;
72132;SDS011;60008;50.826;6.896;2022-10-24T13:40:27;3.07;;;0.57;;
72132;SDS011;60008;50.826;6.896;2022-10-24T13:43:16;6.35;;;0.73;;
72132;SDS011;60008;50.826;6.896;2022-10-24T13:46:05;3.55;;;0.77;;
72132;SDS011;60008;50.826;6.896;2022-10-24T13:48:57;3.50;;;0.60;;
72132;SDS011;60008;50.826;6.896;2022-10-24T13:51:44;4.05;;;1.00;;
72132;SDS011;60008;50.826;6.896;2022-10-24T13:54:33;8.40;;;0.80;;
72132;SDS011;60008;50.826;6.896;2022-10-24T13:57:32;6.13;;;0.80;;
72132;SDS011;60008;50.826;6.896;2022-10-24T14:00:24;5.07;;;0.95;;
72132;SDS011;60008;50.826;6.896;2022-10-24T14:03:17;6.45;;;0.68;;
72132;SDS011;60008;50.826;6.896;2022-10-24T14:06:04;4.53;;;0.80;;
72132;SDS011;60008;50.826;6.896;2022-10-24T14:08:52;4.10;;;0.83;;
72132;SDS011;60008;50.826;6.896;2022-10-24T14:11:50;4.97;;;0.68;;
72132;SDS011;60008;50.826;6.896;2022-10-24T14:14:40;10.13;;;0.68;;
72132;SDS011;60008;50.826;6.896;2022-10-24T14:17:26;6.45;;;0.57;;
72132;SDS011;60008;50.826;6.896;2022-10-24T14:20:18;3.65;;;0.57;;
72132;SDS011;60008;50.826;6.896;2022-10-24T14:26:19;4.22;;;0.68;;
72132;SDS011;60008;50.826;6.896;2022-10-24T14:29:12;1.75;;;0.60;;
72132;SDS011;60008;50.826;6.896;2022-10-24T14:32:06;5.30;;;0.63;;
72132;SDS011;60008;50.826;6.896;2022-10-24T14:34:58;2.40;;;0.50;;
72132;SDS011;60008;50.826;6.896;2022-10-24T14:37:45;2.57;;;0.57;;
72132;SDS011;60008;50.826;6.896;2022-10-24T14:40:30;3.40;;;0.57;;
72132;SDS011;60008;50.826;6.896;2022-10-24T14:43:18;3.85;;;0.60;;
72132;SDS011;60008;50.826;6.896;2022-10-24T14:48:59;4.38;;;0.80;;
72132;SDS011;60008;50.826;6.896;2022-10-24T14:51:47;2.13;;;0.50;;
72132;SDS011;60008;50.826;6.896;2022-10-24T14:54:34;6.50;;;0.63;;
72132;SDS011;60008;50.826;6.896;2022-10-24T14:57:20;2.00;;;0.60;;
72132;SDS011;60008;50.826;6.896;2022-10-24T15:00:16;3.63;;;0.60;;
72132;SDS011;60008;50.826;6.896;2022-10-24T15:03:04;5.45;;;0.70;;
72132;SDS011;60008;50.826;6.896;2022-10-24T15:05:53;3.43;;;0.53;;
72132;SDS011;60008;50.826;6.896;2022-10-24T15:08:40;2.22;;;0.52;;
72132;SDS011;60008;50.826;6.896;2022-10-24T15:11:29;7.50;;;0.80;;
72132;SDS011;60008;50.826;6.896;2022-10-24T15:14:32;3.50;;;0.70;;
72132;SDS011;60008;50.826;6.896;2022-10-24T15:20:08;4.47;;;0.60;;
72132;SDS011;60008;50.826;6.896;2022-10-24T15:22:58;2.47;;;0.50;;
72132;SDS011;60008;50.826;6.896;2022-10-24T15:25:44;4.22;;;0.70;;
72132;SDS011;60008;50.826;6.896;2022-10-24T15:28:36;3.67;;;0.88;;
72132;SDS011;60008;50.826;6.896;2022-10-24T15:31:28;3.95;;;0.60;;
72132;SDS011;60008;50.826;6.896;2022-10-24T15:34:18;7.47;;;1.20;;
72132;SDS011;60008;50.826;6.896;2022-10-24T15:37:04;8.25;;;0.95;;
72132;SDS011;60008;50.826;6.896;2022-10-24T15:39:51;3.03;;;0.68;;
72132;SDS011;60008;50.826;6.896;2022-10-24T15:42:37;4.68;;;0.60;;
72132;SDS011;60008;50.826;6.896;2022-10-24T15:45:22;6.72;;;1.00;;
72132;SDS011;60008;50.826;6.896;2022-10-24T15:48:08;6.27;;;0.80;;
72132;SDS011;60008;50.826;6.896;2022-10-24T15:50:53;9.05;;;0.90;;
72132;SDS011;60008;50.826;6.896;2022-10-24T15:53:38;4.38;;;0.75;;
72132;SDS011;60008;50.826;6.896;2022-10-24T15:56:23;11.75;;;0.80;;
72132;SDS011;60008;50.826;6.896;2022-10-24T15:59:08;4.10;;;0.77;;
72132;SDS011;60008;50.826;6.896;2022-10-24T16:01:56;3.60;;;0.43;;
72132;SDS011;60008;50.826;6.896;2022-10-24T16:04:47;2.20;;;0.80;;
72132;SDS011;60008;50.826;6.896;2022-10-24T16:07:32;4.95;;;0.85;;
72132;SDS011;60008;50.826;6.896;2022-10-24T16:10:17;4.60;;;0.90;;
72132;SDS011;60008;50.826;6.896;2022-10-24T16:13:04;2.63;;;0.32;;
72132;SDS011;60008;50.826;6.896;2022-10-24T16:15:49;3.13;;;0.60;;
72132;SDS011;60008;50.826;6.896;2022-10-24T16:18:35;5.30;;;0.82;;
72132;SDS011;60008;50.826;6.896;2022-10-24T16:21:20;5.82;;;0.85;;
72132;SDS011;60008;50.826;6.896;2022-10-24T16:24:06;5.60;;;0.77;;
72132;SDS011;60008;50.826;6.896;2022-10-24T16:26:51;4.38;;;0.75;;
72132;SDS011;60008;50.826;6.896;2022-10-24T16:29:36;3.80;;;0.90;;
72132;SDS011;60008;50.826;6.896;2022-10-24T16:32:22;3.65;;;0.80;;
72132;SDS011;60008;50.826;6.896;2022-10-24T16:35:07;4.97;;;0.82;;
72132;SDS011;60008;50.826;6.896;2022-10-24T16:37:54;6.07;;;1.15;;
72132;SDS011;60008;50.826;6.896;2022-10-24T16:40:41;3.83;;;1.10;;
72132;SDS011;60008;50.826;6.896;2022-10-24T16:43:28;5.27;;;0.90;;
72132;SDS011;60008;50.826;6.896;2022-10-24T16:46:14;4.32;;;0.98;;
72132;SDS011;60008;50.826;6.896;2022-10-24T16:49:01;7.72;;;1.42;;
72132;SDS011;60008;50.826;6.896;2022-10-24T16:51:45;6.60;;;1.23;;
72132;SDS011;60008;50.826;6.896;2022-10-24T16:54:30;8.68;;;1.60;;
72132;SDS011;60008;50.826;6.896;2022-10-24T16:57:16;5.80;;;1.30;;
72132;SDS011;60008;50.826;6.896;2022-10-24T17:00:01;10.48;;;1.27;;
72132;SDS011;60008;50.826;6.896;2022-10-24T17:02:48;7.60;;;1.70;;
72132;SDS011;60008;50.826;6.896;2022-10-24T17:05:35;9.15;;;1.63;;
72132;SDS011;60008;50.826;6.896;2022-10-24T17:08:20;9.35;;;1.50;;
72132;SDS011;60008;50.826;6.896;2022-10-24T17:11:05;12.87;;;1.53;;
72132;SDS011;60008;50.826;6.896;2022-10-24T17:14:10;12.52;;;1.70;;
72132;SDS011;60008;50.826;6.896;2022-10-24T17:16:57;5.53;;;1.20;;
72132;SDS011;60008;50.826;6.896;2022-10-24T17:19:42;6.65;;;1.00;;
72132;SDS011;60008;50.826;6.896;2022-10-24T17:22:28;6.50;;;1.30;;
72132;SDS011;60008;50.826;6.896;2022-10-24T17:25:20;10.87;;;1.37;;
72132;SDS011;60008;50.826;6.896;2022-10-24T17:28:07;6.32;;;1.30;;
72132;SDS011;60008;50.826;6.896;2022-10-24T17:30:52;4.85;;;1.10;;
72132;SDS011;60008;50.826;6.896;2022-10-24T17:33:42;7.97;;;1.20;;
72132;SDS011;60008;50.826;6.896;2022-10-24T17:36:29;5.47;;;1.27;;
72132;SDS011;60008;50.826;6.896;2022-10-24T17:39:21;7.30;;;1.27;;
72132;SDS011;60008;50.826;6.896;2022-10-24T17:42:13;8.57;;;1.15;;
72132;SDS011;60008;50.826;6.896;2022-10-24T17:44:59;6.82;;;1.50;;
72132;SDS011;60008;50.826;6.896;2022-10-24T17:47:44;7.20;;;1.77;;
72132;SDS011;60008;50.826;6.896;2022-10-24T17:50:30;9.18;;;1.48;;
72132;SDS011;60008;50.826;6.896;2022-10-24T17:53:16;4.20;;;1.13;;
72132;SDS011;60008;50.826;6.896;2022-10-24T17:56:02;5.30;;;1.60;;
72132;SDS011;60008;50.826;6.896;2022-10-24T17:58:47;6.28;;;1.75;;
72132;SDS011;60008;50.826;6.896;2022-10-24T18:01:34;7.82;;;1.77;;
72132;SDS011;60008;50.826;6.896;2022-10-24T18:04:20;9.15;;;1.50;;
72132;SDS011;60008;50.826;6.896;2022-10-24T18:07:05;10.37;;;1.67;;
72132;SDS011;60008;50.826;6.896;2022-10-24T18:09:50;6.95;;;1.17;;
72132;SDS011;60008;50.826;6.896;2022-10-24T18:12:42;7.00;;;1.23;;
72132;SDS011;60008;50.826;6.896;2022-10-24T18:15:27;8.10;;;1.10;;
72132;SDS011;60008;50.826;6.896;2022-10-24T18:18:12;2.97;;;0.93;;
72132;SDS011;60008;50.826;6.896;2022-10-24T18:21:04;7.30;;;0.73;;
72132;SDS011;60008;50.826;6.896;2022-10-24T18:23:51;10.80;;;1.33;;
72132;SDS011;60008;50.826;6.896;2022-10-24T18:26:37;8.13;;;1.25;;
72132;SDS011;60008;50.826;6.896;2022-10-24T18:29:22;6.50;;;0.88;;
72132;SDS011;60008;50.826;6.896;2022-10-24T18:32:08;5.10;;;1.15;;
72132;SDS011;60008;50.826;6.896;2022-10-24T18:34:57;8.77;;;1.20;;
72132;SDS011;60008;50.826;6.896;2022-10-24T18:37:42;7.90;;;1.10;;